sensor_id;sensor_type;location;lat;lon;timestamp;pressure;altitude;pressure_sealevel;temperature;humidity
59158;BME280;44940;55.060;73.168;2022-07-06T00:00:50;99063.41;;;15.42;100.00
59158;BME280;44940;55.060;73.168;2022-07-06T00:03:18;99064.22;;;15.43;100.00
59158;BME280;44940;55.060;73.168;2022-07-06T00:05:44;99070.19;;;15.41;100.00
59158;BME280;44940;55.060;73.168;2022-07-06T00:08:11;99069.81;;;15.43;100.00
59158;BME280;44940;55.060;73.168;2022-07-06T00:10:40;99084.91;;;15.45;100.00
59158;BME280;44940;55.060;73.168;2022-07-06T00:13:07;99086.91;;;15.45;100.00
59158;BME280;44940;55.060;73.168;2022-07-06T00:15:34;99080.53;;;15.44;100.00
59158;BME280;44940;55.060;73.168;2022-07-06T00:18:01;99095.19;;;15.52;100.00
59158;BME280;44940;55.060;73.168;2022-07-06T00:20:28;99102.31;;;15.57;100.00
59158;BME280;44940;55.060;73.168;2022-07-06T00:22:55;71117.31;;;-144.94;100.00
59158;BME280;44940;55.060;73.168;2022-07-06T00:25:22;99102.31;;;15.57;100.00
59158;BME280;44940;55.060;73.168;2022-07-06T00:27:51;99079.97;;;15.60;100.00
59158;BME280;44940;55.060;73.168;2022-07-06T00:30:18;99098.13;;;15.75;100.00
59158;BME280;44940;55.060;73.168;2022-07-06T00:32:45;99098.47;;;15.77;100.00
59158;BME280;44940;55.060;73.168;2022-07-06T00:35:12;99102.91;;;15.75;100.00
59158;BME280;44940;55.060;73.168;2022-07-06T00:37:39;99103.75;;;15.72;100.00
59158;BME280;44940;55.060;73.168;2022-07-06T00:40:08;99112.44;;;15.77;100.00
59158;BME280;44940;55.060;73.168;2022-07-06T00:42:42;99112.44;;;15.77;100.00
59158;BME280;44940;55.060;73.168;2022-07-06T00:45:12;99122.69;;;15.88;100.00
59158;BME280;44940;55.060;73.168;2022-07-06T00:47:40;99122.69;;;15.88;100.00
59158;BME280;44940;55.060;73.168;2022-07-06T00:50:09;99097.63;;;15.84;100.00
59158;BME280;44940;55.060;73.168;2022-07-06T00:52:49;99115.38;;;15.97;100.00
59158;BME280;44940;55.060;73.168;2022-07-06T00:55:18;99125.72;;;16.00;100.00
59158;BME280;44940;55.060;73.168;2022-07-06T00:57:46;99135.28;;;15.99;100.00
59158;BME280;44940;55.060;73.168;2022-07-06T01:00:17;99144.06;;;16.01;100.00
59158;BME280;44940;55.060;73.168;2022-07-06T01:02:44;99142.44;;;16.04;100.00
59158;BME280;44940;55.060;73.168;2022-07-06T01:05:13;99145.97;;;16.08;100.00
59158;BME280;44940;55.060;73.168;2022-07-06T01:07:42;99130.91;;;15.98;100.00
59158;BME280;44940;55.060;73.168;2022-07-06T01:10:11;99143.00;;;16.19;100.00
59158;BME280;44940;55.060;73.168;2022-07-06T01:12:39;99149.38;;;16.19;100.00
59158;BME280;44940;55.060;73.168;2022-07-06T01:15:09;99150.94;;;16.24;100.00
59158;BME280;44940;55.060;73.168;2022-07-06T01:17:39;99152.88;;;16.27;100.00
59158;BME280;44940;55.060;73.168;2022-07-06T01:20:12;99158.09;;;16.25;100.00
59158;BME280;44940;55.060;73.168;2022-07-06T01:22:39;99173.16;;;16.31;100.00
59158;BME280;44940;55.060;73.168;2022-07-06T01:25:07;99170.69;;;16.36;100.00
59158;BME280;44940;55.060;73.168;2022-07-06T01:27:35;99174.63;;;16.43;100.00
59158;BME280;44940;55.060;73.168;2022-07-06T01:30:07;99157.84;;;16.43;100.00
59158;BME280;44940;55.060;73.168;2022-07-06T01:32:35;99172.06;;;16.52;100.00
59158;BME280;44940;55.060;73.168;2022-07-06T01:35:02;99180.03;;;16.53;100.00
59158;BME280;44940;55.060;73.168;2022-07-06T01:37:32;99184.09;;;16.49;100.00
59158;BME280;44940;55.060;73.168;2022-07-06T01:39:59;99194.06;;;16.50;100.00
59158;BME280;44940;55.060;73.168;2022-07-06T01:42:27;99189.44;;;16.39;100.00
59158;BME280;44940;55.060;73.168;2022-07-06T01:44:54;99193.41;;;16.38;100.00
59158;BME280;44940;55.060;73.168;2022-07-06T01:47:22;99201.78;;;16.38;100.00
59158;BME280;44940;55.060;73.168;2022-07-06T01:49:51;99203.44;;;16.36;100.00
59158;BME280;44940;55.060;73.168;2022-07-06T01:52:19;99209.00;;;16.39;100.00
59158;BME280;44940;55.060;73.168;2022-07-06T01:54:48;99206.09;;;16.47;100.00
59158;BME280;44940;55.060;73.168;2022-07-06T01:57:15;99202.44;;;16.50;100.00
59158;BME280;44940;55.060;73.168;2022-07-06T01:59:42;99205.97;;;16.54;100.00
59158;BME280;44940;55.060;73.168;2022-07-06T02:02:10;99206.25;;;16.63;100.00
59158;BME280;44940;55.060;73.168;2022-07-06T02:04:38;99212.63;;;16.67;100.00
59158;BME280;44940;55.060;73.168;2022-07-06T02:07:06;99211.75;;;16.70;100.00
59158;BME280;44940;55.060;73.168;2022-07-06T02:09:33;99214.06;;;16.75;100.00
59158;BME280;44940;55.060;73.168;2022-07-06T02:12:04;99216.00;;;16.82;100.00
59158;BME280;44940;55.060;73.168;2022-07-06T02:14:31;99221.16;;;16.83;100.00
59158;BME280;44940;55.060;73.168;2022-07-06T02:16:58;99225.53;;;16.84;100.00
59158;BME280;44940;55.060;73.168;2022-07-06T02:19:25;99223.03;;;16.90;100.00
59158;BME280;44940;55.060;73.168;2022-07-06T02:21:52;99213.13;;;16.85;100.00
59158;BME280;44940;55.060;73.168;2022-07-06T02:24:19;99227.47;;;16.87;100.00
59158;BME280;44940;55.060;73.168;2022-07-06T02:26:46;99234.72;;;16.85;100.00
59158;BME280;44940;55.060;73.168;2022-07-06T02:29:15;99244.25;;;16.87;100.00
59158;BME280;44940;55.060;73.168;2022-07-06T02:31:43;99243.84;;;16.89;100.00
59158;BME280;44940;55.060;73.168;2022-07-06T02:34:10;99242.69;;;16.86;100.00
59158;BME280;44940;55.060;73.168;2022-07-06T02:36:38;99247.84;;;16.88;100.00
59158;BME280;44940;55.060;73.168;2022-07-06T02:39:05;99257.03;;;16.88;100.00
59158;BME280;44940;55.060;73.168;2022-07-06T02:41:32;99255.03;;;16.89;100.00
59158;BME280;44940;55.060;73.168;2022-07-06T02:44:00;99257.03;;;16.88;100.00
59158;BME280;44940;55.060;73.168;2022-07-06T02:46:28;99263.78;;;16.91;100.00
59158;BME280;44940;55.060;73.168;2022-07-06T02:48:55;99264.56;;;16.91;100.00
59158;BME280;44940;55.060;73.168;2022-07-06T02:51:23;99257.41;;;16.90;100.00
59158;BME280;44940;55.060;73.168;2022-07-06T02:53:51;99266.53;;;16.94;100.00
59158;BME280;44940;55.060;73.168;2022-07-06T02:56:18;99273.75;;;16.92;100.00
59158;BME280;44940;55.060;73.168;2022-07-06T02:58:45;99264.09;;;16.96;100.00
59158;BME280;44940;55.060;73.168;2022-07-06T03:01:13;99265.63;;;17.01;100.00
59158;BME280;44940;55.060;73.168;2022-07-06T03:03:42;99267.53;;;17.08;100.00
59158;BME280;44940;55.060;73.168;2022-07-06T03:06:09;99267.78;;;17.17;100.00
59158;BME280;44940;55.060;73.168;2022-07-06T03:08:37;99273.56;;;17.29;100.00
59158;BME280;44940;55.060;73.168;2022-07-06T03:11:04;99272.19;;;17.41;100.00
59158;BME280;44940;55.060;73.168;2022-07-06T03:13:31;99258.97;;;17.42;100.00
59158;BME280;44940;55.060;73.168;2022-07-06T03:16:00;99276.78;;;17.51;100.00
59158;BME280;44940;55.060;73.168;2022-07-06T03:18:28;99277.13;;;17.57;100.00
59158;BME280;44940;55.060;73.168;2022-07-06T03:20:57;99276.53;;;17.66;100.00
59158;BME280;44940;55.060;73.168;2022-07-06T03:23:24;99282.91;;;17.70;100.00
59158;BME280;44940;55.060;73.168;2022-07-06T03:25:51;99279.25;;;17.73;100.00
59158;BME280;44940;55.060;73.168;2022-07-06T03:28:18;99275.59;;;17.76;100.00
59158;BME280;44940;55.060;73.168;2022-07-06T03:30:45;99277.84;;;17.84;100.00
59158;BME280;44940;55.060;73.168;2022-07-06T03:33:12;99278.88;;;17.94;100.00
59158;BME280;44940;55.060;73.168;2022-07-06T03:35:39;99291.94;;;18.01;100.00
59158;BME280;44940;55.060;73.168;2022-07-06T03:38:09;99290.78;;;17.98;100.00
59158;BME280;44940;55.060;73.168;2022-07-06T03:40:39;99290.78;;;17.98;100.00
59158;BME280;44940;55.060;73.168;2022-07-06T03:43:06;99299.19;;;17.98;100.00
59158;BME280;44940;55.060;73.168;2022-07-06T03:45:36;99300.06;;;17.95;100.00
59158;BME280;44940;55.060;73.168;2022-07-06T03:48:05;99287.75;;;17.89;100.00
59158;BME280;44940;55.060;73.168;2022-07-06T03:50:34;99294.47;;;17.95;100.00
59158;BME280;44940;55.060;73.168;2022-07-06T03:53:02;99285.31;;;17.91;100.00
59158;BME280;44940;55.060;73.168;2022-07-06T03:55:30;99303.16;;;18.01;100.00
59158;BME280;44940;55.060;73.168;2022-07-06T03:58:02;99301.84;;;18.05;100.00
59158;BME280;44940;55.060;73.168;2022-07-06T04:00:30;99302.81;;;18.18;100.00
59158;BME280;44940;55.060;73.168;2022-07-06T04:03:02;99301.75;;;18.32;100.00
59158;BME280;44940;55.060;73.168;2022-07-06T04:05:34;99310.72;;;18.43;100.00
59158;BME280;44940;55.060;73.168;2022-07-06T04:08:01;99307.25;;;18.56;100.00
59158;BME280;44940;55.060;73.168;2022-07-06T04:10:38;99310.72;;;18.63;100.00
59158;BME280;44940;55.060;73.168;2022-07-06T04:13:06;99310.06;;;18.75;100.00
59158;BME280;44940;55.060;73.168;2022-07-06T04:15:33;99310.94;;;18.72;100.00
59158;BME280;44940;55.060;73.168;2022-07-06T04:18:00;99320.16;;;18.73;100.00
59158;BME280;44940;55.060;73.168;2022-07-06T04:20:32;99313.41;;;18.87;100.00
59158;BME280;44940;55.060;73.168;2022-07-06T04:23:00;99314.75;;;18.98;100.00
59158;BME280;44940;55.060;73.168;2022-07-06T04:25:28;99315.94;;;19.17;100.00
59158;BME280;44940;55.060;73.168;2022-07-06T04:28:00;99310.44;;;19.30;100.00
59158;BME280;44940;55.060;73.168;2022-07-06T04:30:29;99304.00;;;19.46;100.00
59158;BME280;44940;55.060;73.168;2022-07-06T04:32:57;71117.31;;;-144.94;100.00
59158;BME280;44940;55.060;73.168;2022-07-06T04:35:27;99322.84;;;20.68;98.97
59158;BME280;44940;55.060;73.168;2022-07-06T04:37:55;71117.31;;;-144.94;100.00
59158;BME280;44940;55.060;73.168;2022-07-06T04:40:23;71117.31;;;-144.94;100.00
59158;BME280;44940;55.060;73.168;2022-07-06T04:42:54;99335.38;;;21.18;92.32
59158;BME280;44940;55.060;73.168;2022-07-06T04:45:23;71117.31;;;-144.94;100.00
59158;BME280;44940;55.060;73.168;2022-07-06T04:47:51;71117.31;;;-144.94;100.00
59158;BME280;44940;55.060;73.168;2022-07-06T04:50:19;99335.38;;;21.18;92.32
59158;BME280;44940;55.060;73.168;2022-07-06T04:52:47;99339.84;;;22.92;88.60
59158;BME280;44940;55.060;73.168;2022-07-06T04:55:14;71117.31;;;-144.94;100.00
59158;BME280;44940;55.060;73.168;2022-07-06T04:57:42;71117.31;;;-144.94;100.00
59158;BME280;44940;55.060;73.168;2022-07-06T05:00:12;71117.31;;;-144.94;100.00
59158;BME280;44940;55.060;73.168;2022-07-06T05:02:42;99355.75;;;23.70;80.46
59158;BME280;44940;55.060;73.168;2022-07-06T05:05:10;71117.31;;;-144.94;100.00
59158;BME280;44940;55.060;73.168;2022-07-06T05:07:38;71117.31;;;-144.94;100.00
59158;BME280;44940;55.060;73.168;2022-07-06T05:10:08;99353.19;;;24.39;81.74
59158;BME280;44940;55.060;73.168;2022-07-06T05:12:45;99362.31;;;24.52;76.04
59158;BME280;44940;55.060;73.168;2022-07-06T05:15:14;99352.25;;;24.42;75.87
59158;BME280;44940;55.060;73.168;2022-07-06T05:17:42;99357.41;;;23.98;75.98
59158;BME280;44940;55.060;73.168;2022-07-06T05:20:10;99356.88;;;23.72;74.38
59158;BME280;44940;55.060;73.168;2022-07-06T05:22:40;99378.88;;;23.46;74.74
59158;BME280;44940;55.060;73.168;2022-07-06T05:25:09;99371.06;;;22.88;75.15
59158;BME280;44940;55.060;73.168;2022-07-06T05:27:36;99381.59;;;22.75;76.24
59158;BME280;44940;55.060;73.168;2022-07-06T05:30:05;99389.38;;;22.62;77.32
59158;BME280;44940;55.060;73.168;2022-07-06T05:32:32;99393.50;;;22.48;77.95
59158;BME280;44940;55.060;73.168;2022-07-06T05:35:01;99399.34;;;22.19;79.05
59158;BME280;44940;55.060;73.168;2022-07-06T05:37:29;99405.69;;;22.10;79.81
59158;BME280;44940;55.060;73.168;2022-07-06T05:39:57;99408.72;;;22.03;82.13
59158;BME280;44940;55.060;73.168;2022-07-06T05:42:24;99404.00;;;21.75;82.02
59158;BME280;44940;55.060;73.168;2022-07-06T05:44:54;99408.09;;;21.61;81.75
59158;BME280;44940;55.060;73.168;2022-07-06T05:47:21;99411.47;;;21.43;82.62
59158;BME280;44940;55.060;73.168;2022-07-06T05:50:08;99415.63;;;21.26;83.75
59158;BME280;44940;55.060;73.168;2022-07-06T05:52:41;99426.28;;;21.18;85.13
59158;BME280;44940;55.060;73.168;2022-07-06T05:55:10;99405.19;;;20.98;86.93
59158;BME280;44940;55.060;73.168;2022-07-06T05:57:38;99418.06;;;21.11;86.84
59158;BME280;44940;55.060;73.168;2022-07-06T06:00:08;71117.31;;;-144.94;100.00
59158;BME280;44940;55.060;73.168;2022-07-06T06:02:43;99427.13;;;20.90;88.31
59158;BME280;44940;55.060;73.168;2022-07-06T06:05:16;99418.69;;;20.90;88.40
59158;BME280;44940;55.060;73.168;2022-07-06T06:07:45;99429.94;;;20.90;88.52
59158;BME280;44940;55.060;73.168;2022-07-06T06:10:15;99434.13;;;20.98;89.16
59158;BME280;44940;55.060;73.168;2022-07-06T06:12:44;99405.25;;;20.81;87.06
59158;BME280;44940;55.060;73.168;2022-07-06T06:15:12;99428.94;;;20.97;87.34
59158;BME280;44940;55.060;73.168;2022-07-06T06:17:39;99431.88;;;20.93;88.51
59158;BME280;44940;55.060;73.168;2022-07-06T06:20:08;99437.59;;;20.89;88.91
59158;BME280;44940;55.060;73.168;2022-07-06T06:22:46;99429.72;;;20.84;89.06
59158;BME280;44940;55.060;73.168;2022-07-06T06:25:14;99433.31;;;20.85;89.38
59158;BME280;44940;55.060;73.168;2022-07-06T06:27:41;99422.09;;;20.69;88.94
59158;BME280;44940;55.060;73.168;2022-07-06T06:30:09;99435.06;;;20.79;88.65
59158;BME280;44940;55.060;73.168;2022-07-06T06:32:36;99436.47;;;20.87;87.12
59158;BME280;44940;55.060;73.168;2022-07-06T06:35:03;99431.91;;;21.06;88.52
59158;BME280;44940;55.060;73.168;2022-07-06T06:37:30;99441.78;;;21.39;86.32
59158;BME280;44940;55.060;73.168;2022-07-06T06:39:59;99434.03;;;21.81;84.64
59158;BME280;44940;55.060;73.168;2022-07-06T06:42:26;99439.41;;;21.89;82.59
59158;BME280;44940;55.060;73.168;2022-07-06T06:44:53;99439.06;;;22.12;84.03
59158;BME280;44940;55.060;73.168;2022-07-06T06:47:20;99441.69;;;22.06;83.87
59158;BME280;44940;55.060;73.168;2022-07-06T06:49:47;99443.34;;;22.04;85.03
59158;BME280;44940;55.060;73.168;2022-07-06T06:52:14;99444.38;;;22.10;84.36
59158;BME280;44940;55.060;73.168;2022-07-06T06:54:41;99443.78;;;22.15;84.04
59158;BME280;44940;55.060;73.168;2022-07-06T06:57:10;99451.91;;;22.26;81.61
59158;BME280;44940;55.060;73.168;2022-07-06T06:59:37;99452.22;;;22.40;81.79
59158;BME280;44940;55.060;73.168;2022-07-06T07:02:04;99444.69;;;22.59;80.23
59158;BME280;44940;55.060;73.168;2022-07-06T07:04:31;99444.84;;;22.78;80.97
59158;BME280;44940;55.060;73.168;2022-07-06T07:06:58;99442.56;;;23.07;78.98
59158;BME280;44940;55.060;73.168;2022-07-06T07:09:25;71117.31;;;-144.94;100.00
59158;BME280;44940;55.060;73.168;2022-07-06T07:11:52;99454.59;;;23.20;76.77
59158;BME280;44940;55.060;73.168;2022-07-06T07:14:20;99430.13;;;23.26;76.09
59158;BME280;44940;55.060;73.168;2022-07-06T07:16:47;99428.78;;;23.09;76.39
59158;BME280;44940;55.060;73.168;2022-07-06T07:19:14;99446.47;;;23.31;77.96
59158;BME280;44940;55.060;73.168;2022-07-06T07:21:41;99438.31;;;23.02;74.78
59158;BME280;44940;55.060;73.168;2022-07-06T07:24:08;99442.72;;;23.04;75.25
59158;BME280;44940;55.060;73.168;2022-07-06T07:26:35;99439.78;;;23.38;74.68
59158;BME280;44940;55.060;73.168;2022-07-06T07:29:02;99444.75;;;23.56;73.38
59158;BME280;44940;55.060;73.168;2022-07-06T07:31:31;99444.75;;;23.56;73.38
59158;BME280;44940;55.060;73.168;2022-07-06T07:33:58;99449.25;;;23.75;72.19
59158;BME280;44940;55.060;73.168;2022-07-06T07:36:25;99439.38;;;23.80;72.88
59158;BME280;44940;55.060;73.168;2022-07-06T07:38:52;99444.63;;;23.59;72.36
59158;BME280;44940;55.060;73.168;2022-07-06T07:41:19;99441.84;;;23.47;73.09
59158;BME280;44940;55.060;73.168;2022-07-06T07:43:46;99443.06;;;23.58;72.41
59158;BME280;44940;55.060;73.168;2022-07-06T07:46:13;99449.97;;;23.67;75.29
59158;BME280;44940;55.060;73.168;2022-07-06T07:48:42;99450.06;;;23.85;73.75
59158;BME280;44940;55.060;73.168;2022-07-06T07:51:09;99454.78;;;23.88;72.50
59158;BME280;44940;55.060;73.168;2022-07-06T07:53:36;99454.78;;;23.88;72.50
59158;BME280;44940;55.060;73.168;2022-07-06T07:56:04;99456.06;;;23.96;72.58
59158;BME280;44940;55.060;73.168;2022-07-06T07:58:31;99456.69;;;23.91;71.87
59158;BME280;44940;55.060;73.168;2022-07-06T08:00:58;99464.66;;;23.83;71.00
59158;BME280;44940;55.060;73.168;2022-07-06T08:03:26;99463.25;;;23.88;70.62
59158;BME280;44940;55.060;73.168;2022-07-06T08:05:54;99470.97;;;23.87;71.70
59158;BME280;44940;55.060;73.168;2022-07-06T08:08:21;99467.09;;;24.03;70.62
59158;BME280;44940;55.060;73.168;2022-07-06T08:10:48;99477.81;;;24.17;68.70
59158;BME280;44940;55.060;73.168;2022-07-06T08:13:15;99470.34;;;24.33;67.40
59158;BME280;44940;55.060;73.168;2022-07-06T08:15:43;99470.66;;;24.35;71.37
59158;BME280;44940;55.060;73.168;2022-07-06T08:18:10;99470.69;;;24.62;71.63
59158;BME280;44940;55.060;73.168;2022-07-06T08:20:37;99478.56;;;24.86;70.86
59158;BME280;44940;55.060;73.168;2022-07-06T08:23:05;99465.03;;;24.99;69.87
59158;BME280;44940;55.060;73.168;2022-07-06T08:25:32;99478.88;;;25.06;70.76
59158;BME280;44940;55.060;73.168;2022-07-06T08:27:59;99480.13;;;25.23;68.96
59158;BME280;44940;55.060;73.168;2022-07-06T08:30:26;99482.97;;;25.32;68.46
59158;BME280;44940;55.060;73.168;2022-07-06T08:32:53;99486.88;;;25.26;68.55
59158;BME280;44940;55.060;73.168;2022-07-06T08:35:20;99487.66;;;25.35;68.64
59158;BME280;44940;55.060;73.168;2022-07-06T08:37:47;99486.72;;;25.38;69.50
59158;BME280;44940;55.060;73.168;2022-07-06T08:40:15;99493.81;;;25.34;66.15
59158;BME280;44940;55.060;73.168;2022-07-06T08:42:44;99501.81;;;25.45;68.65
59158;BME280;44940;55.060;73.168;2022-07-06T08:45:12;99496.16;;;25.35;71.77
59158;BME280;44940;55.060;73.168;2022-07-06T08:47:41;99497.78;;;25.18;75.69
59158;BME280;44940;55.060;73.168;2022-07-06T08:50:09;99507.84;;;25.19;74.76
59158;BME280;44940;55.060;73.168;2022-07-06T08:52:37;99507.84;;;25.19;74.76
59158;BME280;44940;55.060;73.168;2022-07-06T08:55:05;99511.78;;;24.27;77.86
59158;BME280;44940;55.060;73.168;2022-07-06T08:57:37;99494.44;;;24.06;80.01
59158;BME280;44940;55.060;73.168;2022-07-06T09:00:07;99504.63;;;24.35;78.92
59158;BME280;44940;55.060;73.168;2022-07-06T09:02:35;99494.09;;;24.35;78.35
59158;BME280;44940;55.060;73.168;2022-07-06T09:05:03;99506.41;;;24.50;78.32
59158;BME280;44940;55.060;73.168;2022-07-06T09:07:30;99507.13;;;24.33;78.97
59158;BME280;44940;55.060;73.168;2022-07-06T09:09:59;99500.22;;;24.34;78.56
59158;BME280;44940;55.060;73.168;2022-07-06T09:12:27;99515.16;;;24.43;78.24
59158;BME280;44940;55.060;73.168;2022-07-06T09:14:56;99517.84;;;24.47;77.59
59158;BME280;44940;55.060;73.168;2022-07-06T09:17:25;99517.53;;;24.36;78.21
59158;BME280;44940;55.060;73.168;2022-07-06T09:19:55;99523.41;;;24.19;76.80
59158;BME280;44940;55.060;73.168;2022-07-06T09:22:27;99522.47;;;24.22;76.88
59158;BME280;44940;55.060;73.168;2022-07-06T09:25:00;99517.06;;;24.06;78.05
59158;BME280;44940;55.060;73.168;2022-07-06T09:27:28;99516.34;;;24.24;77.02
59158;BME280;44940;55.060;73.168;2022-07-06T09:29:59;99529.78;;;24.33;77.00
59158;BME280;44940;55.060;73.168;2022-07-06T09:32:28;99532.94;;;24.44;77.35
59158;BME280;44940;55.060;73.168;2022-07-06T09:34:55;99534.19;;;24.43;76.99
59158;BME280;44940;55.060;73.168;2022-07-06T09:37:22;99533.59;;;24.57;76.72
59158;BME280;44940;55.060;73.168;2022-07-06T09:39:52;99527.59;;;24.46;76.40
59158;BME280;44940;55.060;73.168;2022-07-06T09:42:24;99521.03;;;24.49;77.31
59158;BME280;44940;55.060;73.168;2022-07-06T09:44:52;99531.72;;;24.54;77.15
59158;BME280;44940;55.060;73.168;2022-07-06T09:47:20;99534.22;;;24.52;77.54
59158;BME280;44940;55.060;73.168;2022-07-06T09:49:47;99530.75;;;24.48;78.89
59158;BME280;44940;55.060;73.168;2022-07-06T09:52:14;99541.09;;;24.33;75.99
59158;BME280;44940;55.060;73.168;2022-07-06T09:54:41;71117.31;;;-144.94;100.00
59158;BME280;44940;55.060;73.168;2022-07-06T09:57:09;99549.44;;;24.05;78.86
59158;BME280;44940;55.060;73.168;2022-07-06T09:59:37;99549.44;;;24.05;78.86
59158;BME280;44940;55.060;73.168;2022-07-06T10:02:05;99542.63;;;23.63;79.03
59158;BME280;44940;55.060;73.168;2022-07-06T10:04:34;99546.19;;;23.76;79.08
59158;BME280;44940;55.060;73.168;2022-07-06T10:07:02;99561.88;;;23.77;79.78
59158;BME280;44940;55.060;73.168;2022-07-06T10:09:30;99568.69;;;23.88;79.60
59158;BME280;44940;55.060;73.168;2022-07-06T10:12:00;99570.63;;;23.70;79.97
59158;BME280;44940;55.060;73.168;2022-07-06T10:14:30;99567.31;;;23.49;79.95
59158;BME280;44940;55.060;73.168;2022-07-06T10:16:58;99556.03;;;23.49;79.84
59158;BME280;44940;55.060;73.168;2022-07-06T10:19:27;99557.03;;;23.55;80.33
59158;BME280;44940;55.060;73.168;2022-07-06T10:21:56;99546.91;;;23.67;79.14
59158;BME280;44940;55.060;73.168;2022-07-06T10:24:27;99561.94;;;23.86;79.65
59158;BME280;44940;55.060;73.168;2022-07-06T10:26:55;99562.63;;;23.99;78.99
59158;BME280;44940;55.060;73.168;2022-07-06T10:29:23;99562.84;;;23.83;78.72
59158;BME280;44940;55.060;73.168;2022-07-06T10:31:50;99564.28;;;23.87;78.97
59158;BME280;44940;55.060;73.168;2022-07-06T10:34:19;99565.75;;;23.92;79.68
59158;BME280;44940;55.060;73.168;2022-07-06T10:36:49;99564.84;;;24.04;78.49
59158;BME280;44940;55.060;73.168;2022-07-06T10:39:32;99573.84;;;23.81;77.53
59158;BME280;44940;55.060;73.168;2022-07-06T10:42:42;99586.47;;;23.45;79.94
59158;BME280;44940;55.060;73.168;2022-07-06T10:45:11;99589.88;;;23.40;78.88
59158;BME280;44940;55.060;73.168;2022-07-06T10:47:38;99572.50;;;23.29;80.04
59158;BME280;44940;55.060;73.168;2022-07-06T10:50:06;99576.06;;;23.20;79.79
59158;BME280;44940;55.060;73.168;2022-07-06T10:52:51;99573.56;;;23.22;81.69
59158;BME280;44940;55.060;73.168;2022-07-06T10:55:30;99572.38;;;23.32;79.31
59158;BME280;44940;55.060;73.168;2022-07-06T10:57:58;99579.63;;;23.34;80.26
59158;BME280;44940;55.060;73.168;2022-07-06T11:00:25;99585.94;;;23.38;78.35
59158;BME280;44940;55.060;73.168;2022-07-06T11:02:52;99593.53;;;23.28;79.50
59158;BME280;44940;55.060;73.168;2022-07-06T11:05:40;99581.69;;;22.98;80.66
59158;BME280;44940;55.060;73.168;2022-07-06T11:08:09;99592.06;;;23.01;80.83
59158;BME280;44940;55.060;73.168;2022-07-06T11:10:48;99578.53;;;22.96;81.22
59158;BME280;44940;55.060;73.168;2022-07-06T11:13:27;99596.44;;;23.15;80.46
59158;BME280;44940;55.060;73.168;2022-07-06T11:16:01;99590.91;;;23.12;79.85
59158;BME280;44940;55.060;73.168;2022-07-06T11:18:39;99590.22;;;23.08;81.32
59158;BME280;44940;55.060;73.168;2022-07-06T11:21:20;99598.78;;;22.82;80.60
59158;BME280;44940;55.060;73.168;2022-07-06T11:23:48;99593.31;;;23.00;81.02
59158;BME280;44940;55.060;73.168;2022-07-06T11:26:17;99601.00;;;23.00;80.59
59158;BME280;44940;55.060;73.168;2022-07-06T11:28:46;99604.41;;;22.95;79.48
59158;BME280;44940;55.060;73.168;2022-07-06T11:31:15;99609.34;;;23.04;80.00
59158;BME280;44940;55.060;73.168;2022-07-06T11:33:45;99603.97;;;22.84;79.89
59158;BME280;44940;55.060;73.168;2022-07-06T11:36:16;99605.78;;;22.78;80.79
59158;BME280;44940;55.060;73.168;2022-07-06T11:38:45;99599.81;;;22.50;79.96
59158;BME280;44940;55.060;73.168;2022-07-06T11:41:14;99611.34;;;22.43;81.14
59158;BME280;44940;55.060;73.168;2022-07-06T11:43:44;99608.16;;;22.54;81.44
59158;BME280;44940;55.060;73.168;2022-07-06T11:46:20;99615.28;;;22.58;80.49
59158;BME280;44940;55.060;73.168;2022-07-06T11:48:47;99588.78;;;22.43;81.29
59158;BME280;44940;55.060;73.168;2022-07-06T11:51:14;99608.41;;;22.47;81.54
59158;BME280;44940;55.060;73.168;2022-07-06T11:53:44;99616.19;;;22.55;82.00
59158;BME280;44940;55.060;73.168;2022-07-06T11:56:11;99621.41;;;22.44;81.35
59158;BME280;44940;55.060;73.168;2022-07-06T11:58:39;99615.88;;;22.40;82.11
59158;BME280;44940;55.060;73.168;2022-07-06T12:01:11;99606.69;;;22.36;82.10
59158;BME280;44940;55.060;73.168;2022-07-06T12:03:38;99620.59;;;22.44;82.21
59158;BME280;44940;55.060;73.168;2022-07-06T12:06:06;99623.53;;;22.40;82.30
59158;BME280;44940;55.060;73.168;2022-07-06T12:08:43;99615.41;;;22.29;81.78
59158;BME280;44940;55.060;73.168;2022-07-06T12:11:10;99618.56;;;22.06;82.96
59158;BME280;44940;55.060;73.168;2022-07-06T12:13:43;99632.22;;;22.07;82.51
59158;BME280;44940;55.060;73.168;2022-07-06T12:16:13;99636.47;;;21.99;83.70
59158;BME280;44940;55.060;73.168;2022-07-06T12:18:43;99634.34;;;22.16;84.56
59158;BME280;44940;55.060;73.168;2022-07-06T12:21:11;99635.28;;;22.26;85.95
59158;BME280;44940;55.060;73.168;2022-07-06T12:23:43;99643.63;;;22.29;85.50
59158;BME280;44940;55.060;73.168;2022-07-06T12:26:11;99637.09;;;22.45;83.65
59158;BME280;44940;55.060;73.168;2022-07-06T12:28:39;99637.53;;;22.44;82.21
59158;BME280;44940;55.060;73.168;2022-07-06T12:31:06;99643.53;;;22.58;82.55
59158;BME280;44940;55.060;73.168;2022-07-06T12:33:34;99652.31;;;22.48;82.63
59158;BME280;44940;55.060;73.168;2022-07-06T12:36:12;99657.63;;;22.58;81.96
59158;BME280;44940;55.060;73.168;2022-07-06T12:38:47;99662.59;;;22.41;82.32
59158;BME280;44940;55.060;73.168;2022-07-06T12:41:29;99660.09;;;22.44;81.06
59158;BME280;44940;55.060;73.168;2022-07-06T12:44:01;99668.19;;;22.16;81.50
59158;BME280;44940;55.060;73.168;2022-07-06T12:46:29;99674.84;;;22.09;81.36
59158;BME280;44940;55.060;73.168;2022-07-06T12:49:03;99677.97;;;21.99;81.84
59158;BME280;44940;55.060;73.168;2022-07-06T12:51:51;99682.44;;;21.96;81.58
59158;BME280;44940;55.060;73.168;2022-07-06T12:54:18;99669.03;;;21.88;83.15